Colorado Star — 9HA2189 — position and weather

sailwx.info

Track history (hours):
 
Tides and Currents Weather Stations Pressure Air Temp Water Temp Dewpoint Dewpoint Depression Visibility Wind Speed Wind Dir Waves Ship Positions

Colorado Star

Last reported at 2015-Mar-28 03:33 UTC. Time now 2015-Mar-28 04:05 UTC.
Position N 53°47' E 006°07'.

Length 128 m; draft 8.6 m.

Type: Ship. MMSI: 248127000.

Date/timePositionNaut miles runAvg speedWind from/ knotsBaromVisibWave heightAir tempDewpointWater temp
2015-Mar-28 03:33N 53°47' E 006°07'4310.9
2015-Mar-27 23:33N 53°59' E 007°18'1211.9
2015-Mar-27 22:33N 54°01' E 007°38'1212.4
2015-Mar-27 21:34N 54°02' E 007°59'1313.1
2015-Mar-27 20:33N 53°60' E 008°21'1414.0
2015-Mar-27 19:34N 53°54' E 008°42'1110.9
2015-Mar-27 18:33N 53°51' E 009°00'9 9.2
2015-Mar-27 17:33N 53°52' E 009°16'10 9.7
2015-Mar-27 16:33N 53°45' E 009°26'10 9.7
2015-Mar-27 15:33N 53°36' E 009°35'1211.7
2015-Mar-27 14:34N 53°33' E 009°53'3 3.3
2015-Mar-27 13:32N 53°30' E 009°57'0 0.0
2015-Mar-27 12:32N 53°30' E 009°57'0 0.0
2015-Mar-27 11:32N 53°30' E 009°57'0 0.0
2015-Mar-27 10:32N 53°30' E 009°57'0 0.0
2015-Mar-27 09:32N 53°30' E 009°57'0 0.0
2015-Mar-27 08:32N 53°30' E 009°57'0 0.0
2015-Mar-27 07:32N 53°30' E 009°57'0 0.0
2015-Mar-27 06:32N 53°30' E 009°57'0 0.0
2015-Mar-27 05:32N 53°30' E 009°57'0 0.0
2015-Mar-27 04:32N 53°30' E 009°57'0 0.0
2015-Mar-27 03:32N 53°30' E 009°57'0 0.0
2015-Mar-27 02:26N 53°30' E 009°57'0 0.0
2015-Mar-27 01:32N 53°30' E 009°57'0 0.0
2015-Mar-27 00:32N 53°30' E 009°57'0 0.0
2015-Mar-26 23:32N 53°30' E 009°57'0 0.0
2015-Mar-26 22:32N 53°30' E 009°57'0 0.0
2015-Mar-26 21:32N 53°30' E 009°57'0 0.0
2015-Mar-26 20:32N 53°30' E 009°57'0 0.0
2015-Mar-26 19:32N 53°30' E 009°57'0 0.0
2015-Mar-26 18:32N 53°30' E 009°57'0 0.0
2015-Mar-26 17:32N 53°30' E 009°57'0 0.0
2015-Mar-26 16:32N 53°30' E 009°57'0 0.0
2015-Mar-26 15:29N 53°30' E 009°57'0 0.0
2015-Mar-26 14:32N 53°30' E 009°57'0 0.0
2015-Mar-26 13:32N 53°30' E 009°57'0 0.0
2015-Mar-26 12:32N 53°30' E 009°57'0 0.0
2015-Mar-26 11:32N 53°30' E 009°57'0 0.0
2015-Mar-26 10:32N 53°30' E 009°57'0 0.0
2015-Mar-26 09:32N 53°30' E 009°57'0 0.0
2015-Mar-26 08:32N 53°30' E 009°57'0 0.0
2015-Mar-26 07:32N 53°30' E 009°57'0 0.0
2015-Mar-26 06:32N 53°30' E 009°57'0 0.0
2015-Mar-26 05:32N 53°30' E 009°57'0 0.0
2015-Mar-26 04:32N 53°30' E 009°57'0 0.0
2015-Mar-26 03:32N 53°30' E 009°57'0 0.0
2015-Mar-26 02:26N 53°30' E 009°57'0 0.0
2015-Mar-26 01:32N 53°30' E 009°57'0 0.0
2015-Mar-26 00:21N 53°30' E 009°57'0 0.0
2015-Mar-25 23:32N 53°30' E 009°57'1 1.1
2015-Mar-25 22:33N 53°31' E 009°56'6 6.1
2015-Mar-25 21:33N 53°33' E 009°47'8 8.4
2015-Mar-25 20:33N 53°37' E 009°34'1010.5
2015-Mar-25 19:34N 53°45' E 009°24'1110.9
2015-Mar-25 18:34N 53°53' E 009°10'8 8.1
2015-Mar-25 17:34N 53°51' E 008°57'7 7.2
2015-Mar-25 16:33N 53°51' E 008°45'8 7.9
2015-Mar-25 15:33N 53°57' E 008°37'10 9.2
2015-Mar-25 14:25N 53°59' E 008°19'1111.3
2015-Mar-25 13:28N 53°58' E 008°01'6 5.9
2015-Mar-25 12:31N 53°55' E 007°53'0 0.0
2015-Mar-25 11:22N 53°55' E 007°53'0 0.1
2015-Mar-25 10:31N 53°55' E 007°53'0 0.0
2015-Mar-25 09:28N 53°55' E 007°52'0 0.0
2015-Mar-25 08:31N 53°55' E 007°52'0 0.0
2015-Mar-25 07:28N 53°55' E 007°52'0 0.0
2015-Mar-25 06:31N 53°55' E 007°52'0 0.0
2015-Mar-25 05:31N 53°55' E 007°52'0 0.0
2015-Mar-25 04:31N 53°55' E 007°52'0 0.0
2015-Mar-25 03:28N 53°55' E 007°52'0 0.1
2015-Mar-25 02:31N 53°55' E 007°53'0 0.1
2015-Mar-25 01:31N 53°55' E 007°53'0 0.0
2015-Mar-25 00:28N 53°55' E 007°53'0 0.0
2015-Mar-24 23:28N 53°55' E 007°53'0 0.0
2015-Mar-24 22:31N 53°55' E 007°53'1 1.5
2015-Mar-24 21:33N 53°54' E 007°52'1212.4
2015-Mar-24 20:34N 53°47' E 008°09'1515.4
2015-Mar-24 19:34N 53°37' E 008°29'4 3.8
2015-Mar-24 18:33N 53°34' E 008°33'0 0.3
2015-Mar-24 17:26N 53°34' E 008°33'0 0.1
2015-Mar-24 16:32N 53°34' E 008°33'0 0.0
2015-Mar-24 15:32N 53°34' E 008°33'0 0.0
2015-Mar-24 14:32N 53°34' E 008°33'0 0.0
2015-Mar-24 13:23N 53°34' E 008°33'0 0.1
2015-Mar-24 12:32N 53°34' E 008°33'0 0.1
2015-Mar-24 11:29N 53°34' E 008°33'0 0.1
2015-Mar-24 10:29N 53°34' E 008°33'0 0.2
2015-Mar-24 09:26N 53°34' E 008°33'0 0.1
2015-Mar-24 08:32N 53°34' E 008°33'0 0.1
2015-Mar-24 07:29N 53°34' E 008°33'0 0.1
2015-Mar-24 06:32N 53°34' E 008°33'0 0.0
2015-Mar-24 05:23N 53°34' E 008°33'0 0.1
2015-Mar-24 04:23N 53°34' E 008°33'0 0.0
2015-Mar-24 03:32N 53°34' E 008°33'0 0.0
2015-Mar-24 02:29N 53°34' E 008°33'0 0.1
2015-Mar-24 01:29N 53°34' E 008°33'0 0.1
2015-Mar-24 00:32N 53°34' E 008°33'0 0.0
2015-Mar-23 23:29N 53°34' E 008°33'0 0.1
2015-Mar-23 22:32N 53°34' E 008°33'0 0.1
2015-Mar-23 21:26N 53°34' E 008°33'0 0.0
2015-Mar-23 20:29N 53°34' E 008°33'0 0.0
2015-Mar-23 19:32N 53°34' E 008°33'0 0.0
2015-Mar-23 18:32N 53°34' E 008°33'0 0.1
2015-Mar-23 17:32N 53°34' E 008°33'0 0.0
2015-Mar-23 16:23N 53°34' E 008°33'0 0.0
2015-Mar-23 15:32N 53°34' E 008°33'0 0.0
2015-Mar-23 14:32N 53°34' E 008°33'0 0.0
2015-Mar-23 13:32N 53°34' E 008°33'0 0.0
2015-Mar-23 12:32N 53°34' E 008°33'0 0.0
2015-Mar-23 11:32N 53°34' E 008°33'  
Track history (hours):
 
Tides and Currents Weather Stations Pressure Air Temp Water Temp Dewpoint Dewpoint Depression Visibility Wind Speed Wind Dir Waves Ship Positions

Colorado Star

Last reported at 2015-Mar-28 03:33 UTC. Time now 2015-Mar-28 04:05 UTC.
Position N 53°47' E 006°07'.

Length 128 m; draft 8.6 m.

Type: Ship. MMSI: 248127000.

Date/timePositionNaut miles runAvg speedWind from/ knotsBaromVisibWave heightAir tempDewpointWater temp
2015-Mar-28 03:33N 53°47' E 006°07'4310.9
2015-Mar-27 23:33N 53°59' E 007°18'1211.9
2015-Mar-27 22:33N 54°01' E 007°38'1212.4
2015-Mar-27 21:34N 54°02' E 007°59'1313.1
2015-Mar-27 20:33N 53°60' E 008°21'1414.0
2015-Mar-27 19:34N 53°54' E 008°42'1110.9
2015-Mar-27 18:33N 53°51' E 009°00'9 9.2
2015-Mar-27 17:33N 53°52' E 009°16'10 9.7
2015-Mar-27 16:33N 53°45' E 009°26'10 9.7
2015-Mar-27 15:33N 53°36' E 009°35'1211.7
2015-Mar-27 14:34N 53°33' E 009°53'3 3.3
2015-Mar-27 13:32N 53°30' E 009°57'0 0.0
2015-Mar-27 12:32N 53°30' E 009°57'0 0.0
2015-Mar-27 11:32N 53°30' E 009°57'0 0.0
2015-Mar-27 10:32N 53°30' E 009°57'0 0.0
2015-Mar-27 09:32N 53°30' E 009°57'0 0.0
2015-Mar-27 08:32N 53°30' E 009°57'0 0.0
2015-Mar-27 07:32N 53°30' E 009°57'0 0.0
2015-Mar-27 06:32N 53°30' E 009°57'0 0.0
2015-Mar-27 05:32N 53°30' E 009°57'0 0.0
2015-Mar-27 04:32N 53°30' E 009°57'0 0.0
2015-Mar-27 03:32N 53°30' E 009°57'0 0.0
2015-Mar-27 02:26N 53°30' E 009°57'0 0.0
2015-Mar-27 01:32N 53°30' E 009°57'0 0.0
2015-Mar-27 00:32N 53°30' E 009°57'0 0.0
2015-Mar-26 23:32N 53°30' E 009°57'0 0.0
2015-Mar-26 22:32N 53°30' E 009°57'0 0.0
2015-Mar-26 21:32N 53°30' E 009°57'0 0.0
2015-Mar-26 20:32N 53°30' E 009°57'0 0.0
2015-Mar-26 19:32N 53°30' E 009°57'0 0.0
2015-Mar-26 18:32N 53°30' E 009°57'0 0.0
2015-Mar-26 17:32N 53°30' E 009°57'0 0.0
2015-Mar-26 16:32N 53°30' E 009°57'0 0.0
2015-Mar-26 15:29N 53°30' E 009°57'0 0.0
2015-Mar-26 14:32N 53°30' E 009°57'0 0.0
2015-Mar-26 13:32N 53°30' E 009°57'0 0.0
2015-Mar-26 12:32N 53°30' E 009°57'0 0.0
2015-Mar-26 11:32N 53°30' E 009°57'0 0.0
2015-Mar-26 10:32N 53°30' E 009°57'0 0.0
2015-Mar-26 09:32N 53°30' E 009°57'0 0.0
2015-Mar-26 08:32N 53°30' E 009°57'0 0.0
2015-Mar-26 07:32N 53°30' E 009°57'0 0.0
2015-Mar-26 06:32N 53°30' E 009°57'0 0.0
2015-Mar-26 05:32N 53°30' E 009°57'0 0.0
2015-Mar-26 04:32N 53°30' E 009°57'0 0.0
2015-Mar-26 03:32N 53°30' E 009°57'0 0.0
2015-Mar-26 02:26N 53°30' E 009°57'0 0.0
2015-Mar-26 01:32N 53°30' E 009°57'0 0.0
2015-Mar-26 00:21N 53°30' E 009°57'0 0.0
2015-Mar-25 23:32N 53°30' E 009°57'1 1.1
2015-Mar-25 22:33N 53°31' E 009°56'6 6.1
2015-Mar-25 21:33N 53°33' E 009°47'8 8.4
2015-Mar-25 20:33N 53°37' E 009°34'1010.5
2015-Mar-25 19:34N 53°45' E 009°24'1110.9
2015-Mar-25 18:34N 53°53' E 009°10'8 8.1
2015-Mar-25 17:34N 53°51' E 008°57'7 7.2
2015-Mar-25 16:33N 53°51' E 008°45'8 7.9
2015-Mar-25 15:33N 53°57' E 008°37'10 9.2
2015-Mar-25 14:25N 53°59' E 008°19'1111.3
2015-Mar-25 13:28N 53°58' E 008°01'6 5.9
2015-Mar-25 12:31N 53°55' E 007°53'0 0.0
2015-Mar-25 11:22N 53°55' E 007°53'0 0.1
2015-Mar-25 10:31N 53°55' E 007°53'0 0.0
2015-Mar-25 09:28N 53°55' E 007°52'0 0.0
2015-Mar-25 08:31N 53°55' E 007°52'0 0.0
2015-Mar-25 07:28N 53°55' E 007°52'0 0.0
2015-Mar-25 06:31N 53°55' E 007°52'0 0.0
2015-Mar-25 05:31N 53°55' E 007°52'0 0.0
2015-Mar-25 04:31N 53°55' E 007°52'0 0.0
2015-Mar-25 03:28N 53°55' E 007°52'0 0.1
2015-Mar-25 02:31N 53°55' E 007°53'0 0.1
2015-Mar-25 01:31N 53°55' E 007°53'0 0.0
2015-Mar-25 00:28N 53°55' E 007°53'0 0.0
2015-Mar-24 23:28N 53°55' E 007°53'0 0.0
2015-Mar-24 22:31N 53°55' E 007°53'1 1.5
2015-Mar-24 21:33N 53°54' E 007°52'1212.4
2015-Mar-24 20:34N 53°47' E 008°09'1515.4
2015-Mar-24 19:34N 53°37' E 008°29'4 3.8
2015-Mar-24 18:33N 53°34' E 008°33'0 0.3
2015-Mar-24 17:26N 53°34' E 008°33'0 0.1
2015-Mar-24 16:32N 53°34' E 008°33'0 0.0
2015-Mar-24 15:32N 53°34' E 008°33'0 0.0
2015-Mar-24 14:32N 53°34' E 008°33'0 0.0
2015-Mar-24 13:23N 53°34' E 008°33'0 0.1
2015-Mar-24 12:32N 53°34' E 008°33'0 0.1
2015-Mar-24 11:29N 53°34' E 008°33'0 0.1
2015-Mar-24 10:29N 53°34' E 008°33'0 0.2
2015-Mar-24 09:26N 53°34' E 008°33'0 0.1
2015-Mar-24 08:32N 53°34' E 008°33'0 0.1
2015-Mar-24 07:29N 53°34' E 008°33'0 0.1
2015-Mar-24 06:32N 53°34' E 008°33'0 0.0
2015-Mar-24 05:23N 53°34' E 008°33'0 0.1
2015-Mar-24 04:23N 53°34' E 008°33'0 0.0
2015-Mar-24 03:32N 53°34' E 008°33'0 0.0
2015-Mar-24 02:29N 53°34' E 008°33'0 0.1
2015-Mar-24 01:29N 53°34' E 008°33'0 0.1
2015-Mar-24 00:32N 53°34' E 008°33'0 0.0
2015-Mar-23 23:29N 53°34' E 008°33'0 0.1
2015-Mar-23 22:32N 53°34' E 008°33'0 0.1
2015-Mar-23 21:26N 53°34' E 008°33'0 0.0
2015-Mar-23 20:29N 53°34' E 008°33'0 0.0
2015-Mar-23 19:32N 53°34' E 008°33'0 0.0
2015-Mar-23 18:32N 53°34' E 008°33'0 0.1
2015-Mar-23 17:32N 53°34' E 008°33'0 0.0
2015-Mar-23 16:23N 53°34' E 008°33'0 0.0
2015-Mar-23 15:32N 53°34' E 008°33'0 0.0
2015-Mar-23 14:32N 53°34' E 008°33'0 0.0
2015-Mar-23 13:32N 53°34' E 008°33'0 0.0
2015-Mar-23 12:32N 53°34' E 008°33'0 0.0
2015-Mar-23 11:32N 53°34' E 008°33'  

Dump ship's entire track history